sensor_id;sensor_type;location;lat;lon;timestamp;temperature;humidity
18779;DHT22;9518;51.720;14.384;2024-01-27T00:00:25;5.50;1.00
18779;DHT22;9518;51.720;14.384;2024-01-27T00:02:53;5.50;1.00
18779;DHT22;9518;51.720;14.384;2024-01-27T00:05:20;5.50;99.90
18779;DHT22;9518;51.720;14.384;2024-01-27T00:07:47;5.50;1.00
18779;DHT22;9518;51.720;14.384;2024-01-27T00:10:14;5.50;63.00
18779;DHT22;9518;51.720;14.384;2024-01-27T00:12:42;5.40;1.00
18779;DHT22;9518;51.720;14.384;2024-01-27T00:15:10;5.40;1.00
18779;DHT22;9518;51.720;14.384;2024-01-27T00:17:37;5.30;1.00
18779;DHT22;9518;51.720;14.384;2024-01-27T00:20:06;5.50;99.90
18779;DHT22;9518;51.720;14.384;2024-01-27T00:22:33;5.40;1.00
18779;DHT22;9518;51.720;14.384;2024-01-27T00:25:00;5.40;99.90
18779;DHT22;9518;51.720;14.384;2024-01-27T00:27:27;5.40;1.00
18779;DHT22;9518;51.720;14.384;2024-01-27T00:29:56;5.40;1.00
18779;DHT22;9518;51.720;14.384;2024-01-27T00:32:23;5.40;99.90
18779;DHT22;9518;51.720;14.384;2024-01-27T00:34:50;5.40;1.00
18779;DHT22;9518;51.720;14.384;2024-01-27T00:37:17;5.40;99.90
18779;DHT22;9518;51.720;14.384;2024-01-27T00:39:44;5.40;1.00
18779;DHT22;9518;51.720;14.384;2024-01-27T00:42:12;5.40;99.90
18779;DHT22;9518;51.720;14.384;2024-01-27T00:44:39;5.40;1.00
18779;DHT22;9518;51.720;14.384;2024-01-27T00:47:07;5.40;1.00
18779;DHT22;9518;51.720;14.384;2024-01-27T00:49:34;5.30;1.00
18779;DHT22;9518;51.720;14.384;2024-01-27T00:52:02;5.30;99.90
18779;DHT22;9518;51.720;14.384;2024-01-27T00:54:29;5.30;1.00
18779;DHT22;9518;51.720;14.384;2024-01-27T00:56:56;5.30;89.10
18779;DHT22;9518;51.720;14.384;2024-01-27T00:59:24;5.30;1.00
18779;DHT22;9518;51.720;14.384;2024-01-27T01:01:51;5.30;1.00
18779;DHT22;9518;51.720;14.384;2024-01-27T01:04:19;5.30;1.00
18779;DHT22;9518;51.720;14.384;2024-01-27T01:06:47;5.30;1.00
18779;DHT22;9518;51.720;14.384;2024-01-27T01:09:14;5.20;1.00
18779;DHT22;9518;51.720;14.384;2024-01-27T01:11:41;5.30;1.00
18779;DHT22;9518;51.720;14.384;2024-01-27T01:14:08;5.30;1.00
18779;DHT22;9518;51.720;14.384;2024-01-27T01:16:35;5.30;1.00
18779;DHT22;9518;51.720;14.384;2024-01-27T01:19:02;5.30;1.00
18779;DHT22;9518;51.720;14.384;2024-01-27T01:21:30;5.20;1.00
18779;DHT22;9518;51.720;14.384;2024-01-27T01:23:57;5.20;1.00
18779;DHT22;9518;51.720;14.384;2024-01-27T01:26:24;5.30;1.00
18779;DHT22;9518;51.720;14.384;2024-01-27T01:28:51;5.20;1.00
18779;DHT22;9518;51.720;14.384;2024-01-27T01:31:20;5.20;1.00
18779;DHT22;9518;51.720;14.384;2024-01-27T01:33:47;5.20;99.90
18779;DHT22;9518;51.720;14.384;2024-01-27T01:36:14;5.20;1.00
18779;DHT22;9518;51.720;14.384;2024-01-27T01:38:45;5.20;1.00
18779;DHT22;9518;51.720;14.384;2024-01-27T01:41:15;5.20;64.00
18779;DHT22;9518;51.720;14.384;2024-01-27T01:43:42;5.10;1.00
18779;DHT22;9518;51.720;14.384;2024-01-27T01:46:09;5.10;99.90
18779;DHT22;9518;51.720;14.384;2024-01-27T01:48:36;5.10;1.00
18779;DHT22;9518;51.720;14.384;2024-01-27T01:51:04;5.10;92.10
18779;DHT22;9518;51.720;14.384;2024-01-27T01:53:31;5.10;1.00
18779;DHT22;9518;51.720;14.384;2024-01-27T01:56:00;5.10;1.00
18779;DHT22;9518;51.720;14.384;2024-01-27T01:58:28;5.10;1.00
18779;DHT22;9518;51.720;14.384;2024-01-27T02:00:59;5.10;23.20
18779;DHT22;9518;51.720;14.384;2024-01-27T02:03:28;5.10;99.90
18779;DHT22;9518;51.720;14.384;2024-01-27T02:05:56;5.00;1.00
18779;DHT22;9518;51.720;14.384;2024-01-27T02:08:23;5.00;99.90
18779;DHT22;9518;51.720;14.384;2024-01-27T02:10:51;5.00;1.00
18779;DHT22;9518;51.720;14.384;2024-01-27T02:13:21;5.00;1.00
18779;DHT22;9518;51.720;14.384;2024-01-27T02:15:50;4.90;99.90
18779;DHT22;9518;51.720;14.384;2024-01-27T02:18:17;4.90;99.90
18779;DHT22;9518;51.720;14.384;2024-01-27T02:20:45;4.90;1.00
18779;DHT22;9518;51.720;14.384;2024-01-27T02:23:12;4.90;99.90
18779;DHT22;9518;51.720;14.384;2024-01-27T02:25:42;4.90;1.10
18779;DHT22;9518;51.720;14.384;2024-01-27T02:28:09;4.90;99.90
18779;DHT22;9518;51.720;14.384;2024-01-27T02:30:38;4.90;99.90
18779;DHT22;9518;51.720;14.384;2024-01-27T02:33:05;4.90;1.00
18779;DHT22;9518;51.720;14.384;2024-01-27T02:35:32;4.90;1.00
18779;DHT22;9518;51.720;14.384;2024-01-27T02:37:59;4.80;99.90
18779;DHT22;9518;51.720;14.384;2024-01-27T02:40:26;4.90;99.20
18779;DHT22;9518;51.720;14.384;2024-01-27T02:42:57;4.80;1.00
18779;DHT22;9518;51.720;14.384;2024-01-27T02:45:24;4.90;1.00
18779;DHT22;9518;51.720;14.384;2024-01-27T02:47:51;4.80;1.00
18779;DHT22;9518;51.720;14.384;2024-01-27T02:50:18;4.80;1.00
18779;DHT22;9518;51.720;14.384;2024-01-27T02:52:48;4.80;1.00
18779;DHT22;9518;51.720;14.384;2024-01-27T02:55:15;4.80;74.50
18779;DHT22;9518;51.720;14.384;2024-01-27T02:57:42;4.80;1.00
18779;DHT22;9518;51.720;14.384;2024-01-27T03:00:12;4.80;99.90
18779;DHT22;9518;51.720;14.384;2024-01-27T03:02:39;4.80;1.00
18779;DHT22;9518;51.720;14.384;2024-01-27T03:05:07;4.80;99.90
18779;DHT22;9518;51.720;14.384;2024-01-27T03:07:34;4.80;99.90
18779;DHT22;9518;51.720;14.384;2024-01-27T03:10:01;4.80;1.00
18779;DHT22;9518;51.720;14.384;2024-01-27T03:12:29;4.80;1.00
18779;DHT22;9518;51.720;14.384;2024-01-27T03:14:56;4.80;1.00
18779;DHT22;9518;51.720;14.384;2024-01-27T03:17:24;4.80;1.00
18779;DHT22;9518;51.720;14.384;2024-01-27T03:19:54;4.80;1.00
18779;DHT22;9518;51.720;14.384;2024-01-27T03:22:21;4.70;1.00
18779;DHT22;9518;51.720;14.384;2024-01-27T03:24:48;4.70;1.00
18779;DHT22;9518;51.720;14.384;2024-01-27T03:27:17;4.60;1.00
18779;DHT22;9518;51.720;14.384;2024-01-27T03:29:44;4.60;1.00
18779;DHT22;9518;51.720;14.384;2024-01-27T03:32:11;4.50;1.00
18779;DHT22;9518;51.720;14.384;2024-01-27T03:34:43;4.40;99.90
18779;DHT22;9518;51.720;14.384;2024-01-27T03:37:11;4.40;99.90
18779;DHT22;9518;51.720;14.384;2024-01-27T03:39:40;4.40;1.00
18779;DHT22;9518;51.720;14.384;2024-01-27T03:42:07;4.50;1.00
18779;DHT22;9518;51.720;14.384;2024-01-27T03:44:35;4.60;1.00
18779;DHT22;9518;51.720;14.384;2024-01-27T03:47:02;4.60;99.90
18779;DHT22;9518;51.720;14.384;2024-01-27T03:49:29;4.60;99.90
18779;DHT22;9518;51.720;14.384;2024-01-27T03:51:57;4.60;99.90
18779;DHT22;9518;51.720;14.384;2024-01-27T03:54:25;4.60;1.00
18779;DHT22;9518;51.720;14.384;2024-01-27T03:56:52;4.50;1.00
18779;DHT22;9518;51.720;14.384;2024-01-27T03:59:19;4.50;1.00
18779;DHT22;9518;51.720;14.384;2024-01-27T04:01:46;4.50;99.90
18779;DHT22;9518;51.720;14.384;2024-01-27T04:04:13;4.50;47.60
18779;DHT22;9518;51.720;14.384;2024-01-27T04:06:41;4.50;1.00
18779;DHT22;9518;51.720;14.384;2024-01-27T04:09:09;4.60;1.00
18779;DHT22;9518;51.720;14.384;2024-01-27T04:11:36;4.60;1.00
18779;DHT22;9518;51.720;14.384;2024-01-27T04:14:05;4.50;1.00
18779;DHT22;9518;51.720;14.384;2024-01-27T04:16:32;4.50;1.00
18779;DHT22;9518;51.720;14.384;2024-01-27T04:18:59;4.50;1.00
18779;DHT22;9518;51.720;14.384;2024-01-27T04:21:26;4.50;1.00
18779;DHT22;9518;51.720;14.384;2024-01-27T04:23:53;4.50;1.00
18779;DHT22;9518;51.720;14.384;2024-01-27T04:26:21;4.50;1.00
18779;DHT22;9518;51.720;14.384;2024-01-27T04:28:48;4.50;1.00
18779;DHT22;9518;51.720;14.384;2024-01-27T04:31:15;4.50;1.00
18779;DHT22;9518;51.720;14.384;2024-01-27T04:33:44;4.50;1.00
18779;DHT22;9518;51.720;14.384;2024-01-27T04:36:11;4.50;1.00
18779;DHT22;9518;51.720;14.384;2024-01-27T04:38:38;4.50;1.00
18779;DHT22;9518;51.720;14.384;2024-01-27T04:41:05;4.50;1.00
18779;DHT22;9518;51.720;14.384;2024-01-27T04:43:33;4.50;1.00
18779;DHT22;9518;51.720;14.384;2024-01-27T04:46:00;4.60;1.00
18779;DHT22;9518;51.720;14.384;2024-01-27T04:48:27;4.60;1.00
18779;DHT22;9518;51.720;14.384;2024-01-27T04:50:55;4.60;99.90
18779;DHT22;9518;51.720;14.384;2024-01-27T04:53:23;4.60;1.00
18779;DHT22;9518;51.720;14.384;2024-01-27T04:55:50;4.70;91.70
18779;DHT22;9518;51.720;14.384;2024-01-27T04:58:17;4.70;99.90
18779;DHT22;9518;51.720;14.384;2024-01-27T05:00:46;4.70;1.00
18779;DHT22;9518;51.720;14.384;2024-01-27T05:03:13;4.70;1.00
18779;DHT22;9518;51.720;14.384;2024-01-27T05:05:41;4.70;1.00
18779;DHT22;9518;51.720;14.384;2024-01-27T05:08:08;4.70;1.00
18779;DHT22;9518;51.720;14.384;2024-01-27T05:10:35;4.70;1.00
18779;DHT22;9518;51.720;14.384;2024-01-27T05:13:02;4.60;1.00
18779;DHT22;9518;51.720;14.384;2024-01-27T05:15:31;4.60;1.00
18779;DHT22;9518;51.720;14.384;2024-01-27T05:17:59;4.60;1.00
18779;DHT22;9518;51.720;14.384;2024-01-27T05:20:26;4.50;1.00
18779;DHT22;9518;51.720;14.384;2024-01-27T05:22:53;4.50;1.00
18779;DHT22;9518;51.720;14.384;2024-01-27T05:25:20;4.50;1.00
18779;DHT22;9518;51.720;14.384;2024-01-27T05:27:48;4.50;1.00
18779;DHT22;9518;51.720;14.384;2024-01-27T05:30:16;4.50;1.00
18779;DHT22;9518;51.720;14.384;2024-01-27T05:32:43;4.50;1.00
18779;DHT22;9518;51.720;14.384;2024-01-27T05:35:12;4.50;1.00
18779;DHT22;9518;51.720;14.384;2024-01-27T05:37:39;4.50;1.00
18779;DHT22;9518;51.720;14.384;2024-01-27T05:40:07;4.50;1.00
18779;DHT22;9518;51.720;14.384;2024-01-27T05:42:34;4.50;1.00
18779;DHT22;9518;51.720;14.384;2024-01-27T05:45:03;4.50;1.00
18779;DHT22;9518;51.720;14.384;2024-01-27T05:47:30;4.60;1.00
18779;DHT22;9518;51.720;14.384;2024-01-27T05:49:57;4.50;1.00
18779;DHT22;9518;51.720;14.384;2024-01-27T05:52:26;4.50;1.00
18779;DHT22;9518;51.720;14.384;2024-01-27T05:54:54;4.50;1.00
18779;DHT22;9518;51.720;14.384;2024-01-27T05:57:21;4.50;1.00
18779;DHT22;9518;51.720;14.384;2024-01-27T05:59:48;4.50;1.00
18779;DHT22;9518;51.720;14.384;2024-01-27T06:02:15;4.50;1.00
18779;DHT22;9518;51.720;14.384;2024-01-27T06:04:43;4.60;1.00
18779;DHT22;9518;51.720;14.384;2024-01-27T06:07:10;4.60;99.90
18779;DHT22;9518;51.720;14.384;2024-01-27T06:09:38;4.60;1.00
18779;DHT22;9518;51.720;14.384;2024-01-27T06:12:06;4.60;1.00
18779;DHT22;9518;51.720;14.384;2024-01-27T06:14:33;4.60;1.00
18779;DHT22;9518;51.720;14.384;2024-01-27T06:17:01;4.60;1.00
18779;DHT22;9518;51.720;14.384;2024-01-27T06:19:30;4.60;1.00
18779;DHT22;9518;51.720;14.384;2024-01-27T06:21:57;4.60;99.90
18779;DHT22;9518;51.720;14.384;2024-01-27T06:24:25;4.60;99.90
18779;DHT22;9518;51.720;14.384;2024-01-27T06:26:53;4.50;35.40
18779;DHT22;9518;51.720;14.384;2024-01-27T06:29:20;4.60;1.00
18779;DHT22;9518;51.720;14.384;2024-01-27T06:31:48;4.60;99.90
18779;DHT22;9518;51.720;14.384;2024-01-27T06:34:15;4.60;1.00
18779;DHT22;9518;51.720;14.384;2024-01-27T06:36:42;4.60;99.90
18779;DHT22;9518;51.720;14.384;2024-01-27T06:39:09;4.60;99.90
18779;DHT22;9518;51.720;14.384;2024-01-27T06:41:37;4.60;99.90
18779;DHT22;9518;51.720;14.384;2024-01-27T06:44:05;4.60;99.90
18779;DHT22;9518;51.720;14.384;2024-01-27T06:46:33;4.60;99.90
18779;DHT22;9518;51.720;14.384;2024-01-27T06:49:00;4.60;1.00
18779;DHT22;9518;51.720;14.384;2024-01-27T06:51:27;4.60;23.40
18779;DHT22;9518;51.720;14.384;2024-01-27T06:53:54;4.60;1.00
18779;DHT22;9518;51.720;14.384;2024-01-27T06:56:21;4.50;1.00
18779;DHT22;9518;51.720;14.384;2024-01-27T06:58:49;4.60;1.00
18779;DHT22;9518;51.720;14.384;2024-01-27T07:01:18;4.50;1.00
18779;DHT22;9518;51.720;14.384;2024-01-27T07:03:45;4.60;13.80
18779;DHT22;9518;51.720;14.384;2024-01-27T07:06:12;4.60;22.80
18779;DHT22;9518;51.720;14.384;2024-01-27T07:08:39;4.60;1.00
18779;DHT22;9518;51.720;14.384;2024-01-27T07:11:06;4.50;36.10
18779;DHT22;9518;51.720;14.384;2024-01-27T07:13:33;4.50;1.00
18779;DHT22;9518;51.720;14.384;2024-01-27T07:16:00;4.50;48.30
18779;DHT22;9518;51.720;14.384;2024-01-27T07:18:29;4.50;99.90
18779;DHT22;9518;51.720;14.384;2024-01-27T07:20:56;4.60;6.00
18779;DHT22;9518;51.720;14.384;2024-01-27T07:23:26;4.50;1.00
18779;DHT22;9518;51.720;14.384;2024-01-27T07:25:53;4.50;39.30
18779;DHT22;9518;51.720;14.384;2024-01-27T07:28:20;4.50;1.00
18779;DHT22;9518;51.720;14.384;2024-01-27T07:30:47;4.60;2.60
18779;DHT22;9518;51.720;14.384;2024-01-27T07:33:14;4.60;1.00
18779;DHT22;9518;51.720;14.384;2024-01-27T07:35:43;4.60;1.00
18779;DHT22;9518;51.720;14.384;2024-01-27T07:38:10;4.60;1.00
18779;DHT22;9518;51.720;14.384;2024-01-27T07:40:37;4.60;99.90
18779;DHT22;9518;51.720;14.384;2024-01-27T07:43:04;4.60;99.90
18779;DHT22;9518;51.720;14.384;2024-01-27T07:45:32;4.60;99.90
18779;DHT22;9518;51.720;14.384;2024-01-27T07:47:59;4.60;99.90
18779;DHT22;9518;51.720;14.384;2024-01-27T07:50:27;4.70;99.90
18779;DHT22;9518;51.720;14.384;2024-01-27T07:52:55;4.70;99.90
18779;DHT22;9518;51.720;14.384;2024-01-27T07:55:22;4.70;1.00
18779;DHT22;9518;51.720;14.384;2024-01-27T07:57:49;4.80;1.00
18779;DHT22;9518;51.720;14.384;2024-01-27T08:00:17;4.80;1.00
18779;DHT22;9518;51.720;14.384;2024-01-27T08:02:44;4.80;99.90
18779;DHT22;9518;51.720;14.384;2024-01-27T08:05:11;4.80;99.90
18779;DHT22;9518;51.720;14.384;2024-01-27T08:07:38;4.80;1.00
18779;DHT22;9518;51.720;14.384;2024-01-27T08:10:07;4.80;1.00
18779;DHT22;9518;51.720;14.384;2024-01-27T08:12:36;4.80;1.00
18779;DHT22;9518;51.720;14.384;2024-01-27T08:15:05;4.90;1.00
18779;DHT22;9518;51.720;14.384;2024-01-27T08:17:33;4.90;99.90
18779;DHT22;9518;51.720;14.384;2024-01-27T08:20:03;4.90;1.00
18779;DHT22;9518;51.720;14.384;2024-01-27T08:22:30;4.90;96.20
18779;DHT22;9518;51.720;14.384;2024-01-27T08:24:58;5.00;99.90
18779;DHT22;9518;51.720;14.384;2024-01-27T08:27:26;5.00;1.00
18779;DHT22;9518;51.720;14.384;2024-01-27T08:29:53;5.00;71.30
18779;DHT22;9518;51.720;14.384;2024-01-27T08:32:20;5.10;99.90
18779;DHT22;9518;51.720;14.384;2024-01-27T08:34:47;5.10;1.00
18779;DHT22;9518;51.720;14.384;2024-01-27T08:37:15;5.10;1.00
18779;DHT22;9518;51.720;14.384;2024-01-27T08:39:42;5.10;99.90
18779;DHT22;9518;51.720;14.384;2024-01-27T08:42:10;5.10;1.00
18779;DHT22;9518;51.720;14.384;2024-01-27T08:44:38;5.10;1.00
18779;DHT22;9518;51.720;14.384;2024-01-27T08:47:06;5.20;1.00
18779;DHT22;9518;51.720;14.384;2024-01-27T08:49:33;5.20;1.00
18779;DHT22;9518;51.720;14.384;2024-01-27T08:52:01;5.20;99.90
18779;DHT22;9518;51.720;14.384;2024-01-27T08:54:28;5.30;1.00
18779;DHT22;9518;51.720;14.384;2024-01-27T08:56:55;5.30;1.00
18779;DHT22;9518;51.720;14.384;2024-01-27T08:59:22;5.30;1.00
18779;DHT22;9518;51.720;14.384;2024-01-27T09:01:50;5.30;1.00
18779;DHT22;9518;51.720;14.384;2024-01-27T09:04:17;5.40;1.00
18779;DHT22;9518;51.720;14.384;2024-01-27T09:06:44;5.40;99.90
18779;DHT22;9518;51.720;14.384;2024-01-27T09:09:12;5.40;1.00
18779;DHT22;9518;51.720;14.384;2024-01-27T09:11:39;5.50;1.00
18779;DHT22;9518;51.720;14.384;2024-01-27T09:14:06;5.50;99.90
18779;DHT22;9518;51.720;14.384;2024-01-27T09:16:33;5.60;1.00
18779;DHT22;9518;51.720;14.384;2024-01-27T09:19:01;5.60;1.00
18779;DHT22;9518;51.720;14.384;2024-01-27T09:21:28;5.70;1.00
18779;DHT22;9518;51.720;14.384;2024-01-27T09:23:58;5.80;1.00
18779;DHT22;9518;51.720;14.384;2024-01-27T09:26:27;5.70;99.90
18779;DHT22;9518;51.720;14.384;2024-01-27T09:28:54;5.70;1.00
18779;DHT22;9518;51.720;14.384;2024-01-27T09:31:21;5.70;1.00
18779;DHT22;9518;51.720;14.384;2024-01-27T09:33:49;5.80;99.90
18779;DHT22;9518;51.720;14.384;2024-01-27T09:36:19;5.80;1.00
18779;DHT22;9518;51.720;14.384;2024-01-27T09:38:46;5.80;99.90
18779;DHT22;9518;51.720;14.384;2024-01-27T09:41:14;5.80;1.00
18779;DHT22;9518;51.720;14.384;2024-01-27T09:43:42;5.80;99.90
18779;DHT22;9518;51.720;14.384;2024-01-27T09:46:11;5.90;1.00
18779;DHT22;9518;51.720;14.384;2024-01-27T09:48:38;5.90;1.00
18779;DHT22;9518;51.720;14.384;2024-01-27T09:51:07;5.90;1.00
18779;DHT22;9518;51.720;14.384;2024-01-27T09:53:35;6.00;1.00
18779;DHT22;9518;51.720;14.384;2024-01-27T09:56:03;6.00;1.00
18779;DHT22;9518;51.720;14.384;2024-01-27T09:58:31;6.10;1.00
18779;DHT22;9518;51.720;14.384;2024-01-27T10:01:00;6.10;1.00
18779;DHT22;9518;51.720;14.384;2024-01-27T10:03:28;6.10;1.00
18779;DHT22;9518;51.720;14.384;2024-01-27T10:05:56;6.20;1.00
18779;DHT22;9518;51.720;14.384;2024-01-27T10:08:24;6.20;99.90
18779;DHT22;9518;51.720;14.384;2024-01-27T10:10:54;6.10;1.00
18779;DHT22;9518;51.720;14.384;2024-01-27T10:13:22;6.10;1.00
18779;DHT22;9518;51.720;14.384;2024-01-27T10:16:01;6.20;99.90
18779;DHT22;9518;51.720;14.384;2024-01-27T10:18:29;6.20;1.00
18779;DHT22;9518;51.720;14.384;2024-01-27T10:20:57;6.20;1.00
18779;DHT22;9518;51.720;14.384;2024-01-27T10:23:24;6.20;1.00
18779;DHT22;9518;51.720;14.384;2024-01-27T10:25:53;6.20;1.00
18779;DHT22;9518;51.720;14.384;2024-01-27T10:28:20;6.10;99.90
18779;DHT22;9518;51.720;14.384;2024-01-27T10:30:48;6.20;1.00
18779;DHT22;9518;51.720;14.384;2024-01-27T10:33:15;6.30;1.00
18779;DHT22;9518;51.720;14.384;2024-01-27T10:35:58;6.30;1.00
18779;DHT22;9518;51.720;14.384;2024-01-27T10:38:33;6.10;1.00
18779;DHT22;9518;51.720;14.384;2024-01-27T10:41:07;6.20;99.90
18779;DHT22;9518;51.720;14.384;2024-01-27T10:43:38;6.20;1.00
18779;DHT22;9518;51.720;14.384;2024-01-27T10:46:07;6.20;1.00
18779;DHT22;9518;51.720;14.384;2024-01-27T10:48:35;6.20;1.00
18779;DHT22;9518;51.720;14.384;2024-01-27T10:51:08;6.30;1.00
18779;DHT22;9518;51.720;14.384;2024-01-27T10:53:36;6.40;1.00
18779;DHT22;9518;51.720;14.384;2024-01-27T10:56:07;6.50;1.00
18779;DHT22;9518;51.720;14.384;2024-01-27T10:58:35;6.50;1.00
18779;DHT22;9518;51.720;14.384;2024-01-27T11:01:08;6.50;1.00
18779;DHT22;9518;51.720;14.384;2024-01-27T11:03:38;6.50;1.00
18779;DHT22;9518;51.720;14.384;2024-01-27T11:06:06;6.40;1.00
18779;DHT22;9518;51.720;14.384;2024-01-27T11:08:38;6.30;1.00
18779;DHT22;9518;51.720;14.384;2024-01-27T11:11:07;6.20;1.00
18779;DHT22;9518;51.720;14.384;2024-01-27T11:13:35;6.20;1.00
18779;DHT22;9518;51.720;14.384;2024-01-27T11:16:03;6.20;1.00
18779;DHT22;9518;51.720;14.384;2024-01-27T11:18:31;6.10;1.00
18779;DHT22;9518;51.720;14.384;2024-01-27T11:20:59;6.10;1.00
18779;DHT22;9518;51.720;14.384;2024-01-27T11:23:32;6.20;1.00
18779;DHT22;9518;51.720;14.384;2024-01-27T11:26:04;6.20;1.00
18779;DHT22;9518;51.720;14.384;2024-01-27T11:28:32;6.30;1.00
18779;DHT22;9518;51.720;14.384;2024-01-27T11:31:03;6.40;1.00
18779;DHT22;9518;51.720;14.384;2024-01-27T11:33:30;6.40;1.00
18779;DHT22;9518;51.720;14.384;2024-01-27T11:36:01;6.50;1.00
18779;DHT22;9518;51.720;14.384;2024-01-27T11:38:30;6.40;1.00
18779;DHT22;9518;51.720;14.384;2024-01-27T11:40:57;6.40;1.00
18779;DHT22;9518;51.720;14.384;2024-01-27T11:43:24;6.50;1.00
18779;DHT22;9518;51.720;14.384;2024-01-27T11:45:58;6.40;1.00
18779;DHT22;9518;51.720;14.384;2024-01-27T11:48:25;6.50;1.00
18779;DHT22;9518;51.720;14.384;2024-01-27T11:51:03;6.50;1.00
18779;DHT22;9518;51.720;14.384;2024-01-27T11:53:31;6.50;1.00
18779;DHT22;9518;51.720;14.384;2024-01-27T11:56:01;6.50;1.00
18779;DHT22;9518;51.720;14.384;2024-01-27T11:58:30;6.60;1.00
18779;DHT22;9518;51.720;14.384;2024-01-27T12:00:59;6.60;1.00
18779;DHT22;9518;51.720;14.384;2024-01-27T12:03:26;6.60;1.00
18779;DHT22;9518;51.720;14.384;2024-01-27T12:05:55;6.60;1.00
18779;DHT22;9518;51.720;14.384;2024-01-27T12:08:22;6.70;1.00
18779;DHT22;9518;51.720;14.384;2024-01-27T12:10:49;6.60;1.00
18779;DHT22;9518;51.720;14.384;2024-01-27T12:13:16;6.60;1.00
18779;DHT22;9518;51.720;14.384;2024-01-27T12:15:43;6.70;1.00
18779;DHT22;9518;51.720;14.384;2024-01-27T12:18:12;6.60;1.00
18779;DHT22;9518;51.720;14.384;2024-01-27T12:20:39;6.60;1.00
18779;DHT22;9518;51.720;14.384;2024-01-27T12:23:07;6.70;1.00
18779;DHT22;9518;51.720;14.384;2024-01-27T12:25:34;6.70;1.00
18779;DHT22;9518;51.720;14.384;2024-01-27T12:28:05;6.60;1.00
18779;DHT22;9518;51.720;14.384;2024-01-27T12:30:36;6.60;1.00
18779;DHT22;9518;51.720;14.384;2024-01-27T12:33:09;6.60;1.00
18779;DHT22;9518;51.720;14.384;2024-01-27T12:35:39;6.60;1.00
18779;DHT22;9518;51.720;14.384;2024-01-27T12:38:06;6.60;1.00
18779;DHT22;9518;51.720;14.384;2024-01-27T12:40:33;6.60;1.00
18779;DHT22;9518;51.720;14.384;2024-01-27T12:43:00;6.60;1.00
18779;DHT22;9518;51.720;14.384;2024-01-27T12:45:28;6.60;1.00
18779;DHT22;9518;51.720;14.384;2024-01-27T12:47:55;6.50;1.00
18779;DHT22;9518;51.720;14.384;2024-01-27T12:50:23;6.40;1.00
18779;DHT22;9518;51.720;14.384;2024-01-27T12:52:51;6.50;99.90
18779;DHT22;9518;51.720;14.384;2024-01-27T12:55:20;6.50;1.00
18779;DHT22;9518;51.720;14.384;2024-01-27T12:57:47;6.60;47.10
18779;DHT22;9518;51.720;14.384;2024-01-27T13:00:15;6.70;1.00
18779;DHT22;9518;51.720;14.384;2024-01-27T13:02:42;6.80;1.00
18779;DHT22;9518;51.720;14.384;2024-01-27T13:05:10;6.80;1.00
18779;DHT22;9518;51.720;14.384;2024-01-27T13:07:39;6.90;1.00
18779;DHT22;9518;51.720;14.384;2024-01-27T13:10:08;6.90;1.00
18779;DHT22;9518;51.720;14.384;2024-01-27T13:12:35;6.90;1.00
18779;DHT22;9518;51.720;14.384;2024-01-27T13:15:03;6.90;99.90
18779;DHT22;9518;51.720;14.384;2024-01-27T13:17:30;6.80;1.00
18779;DHT22;9518;51.720;14.384;2024-01-27T13:19:57;6.90;1.00
18779;DHT22;9518;51.720;14.384;2024-01-27T13:22:24;6.90;1.00
18779;DHT22;9518;51.720;14.384;2024-01-27T13:24:51;7.00;1.00
18779;DHT22;9518;51.720;14.384;2024-01-27T13:27:23;6.90;1.00
18779;DHT22;9518;51.720;14.384;2024-01-27T13:29:50;6.90;1.00
18779;DHT22;9518;51.720;14.384;2024-01-27T13:32:17;6.90;1.00
18779;DHT22;9518;51.720;14.384;2024-01-27T13:34:47;7.00;1.00
18779;DHT22;9518;51.720;14.384;2024-01-27T13:37:14;7.10;1.00
18779;DHT22;9518;51.720;14.384;2024-01-27T13:39:43;7.10;1.00
18779;DHT22;9518;51.720;14.384;2024-01-27T13:42:12;7.20;1.00
18779;DHT22;9518;51.720;14.384;2024-01-27T13:44:41;7.20;1.00
18779;DHT22;9518;51.720;14.384;2024-01-27T13:47:08;7.20;1.00
18779;DHT22;9518;51.720;14.384;2024-01-27T13:49:35;7.20;1.00
18779;DHT22;9518;51.720;14.384;2024-01-27T13:52:04;7.20;1.00
18779;DHT22;9518;51.720;14.384;2024-01-27T13:54:32;7.30;1.00
18779;DHT22;9518;51.720;14.384;2024-01-27T13:57:00;7.30;1.00
18779;DHT22;9518;51.720;14.384;2024-01-27T13:59:27;7.20;1.00
18779;DHT22;9518;51.720;14.384;2024-01-27T14:01:56;7.10;1.00
18779;DHT22;9518;51.720;14.384;2024-01-27T14:04:23;7.00;1.00
18779;DHT22;9518;51.720;14.384;2024-01-27T14:06:50;6.90;99.90
18779;DHT22;9518;51.720;14.384;2024-01-27T14:09:18;6.90;99.90
18779;DHT22;9518;51.720;14.384;2024-01-27T14:11:46;6.90;1.00
18779;DHT22;9518;51.720;14.384;2024-01-27T14:14:14;6.90;1.00
18779;DHT22;9518;51.720;14.384;2024-01-27T14:16:43;6.80;99.90
18779;DHT22;9518;51.720;14.384;2024-01-27T14:19:12;6.70;1.00
18779;DHT22;9518;51.720;14.384;2024-01-27T14:21:39;6.60;99.90
18779;DHT22;9518;51.720;14.384;2024-01-27T14:24:07;6.60;79.90
18779;DHT22;9518;51.720;14.384;2024-01-27T14:26:34;6.50;1.00
18779;DHT22;9518;51.720;14.384;2024-01-27T14:29:02;6.40;1.00
18779;DHT22;9518;51.720;14.384;2024-01-27T14:31:30;6.40;99.90
18779;DHT22;9518;51.720;14.384;2024-01-27T14:33:57;6.30;1.00
18779;DHT22;9518;51.720;14.384;2024-01-27T14:36:26;6.30;99.90
18779;DHT22;9518;51.720;14.384;2024-01-27T14:38:53;6.30;33.10
18779;DHT22;9518;51.720;14.384;2024-01-27T14:41:22;6.30;1.00
18779;DHT22;9518;51.720;14.384;2024-01-27T14:43:49;6.20;99.90
18779;DHT22;9518;51.720;14.384;2024-01-27T14:46:17;6.20;99.90
18779;DHT22;9518;51.720;14.384;2024-01-27T14:48:44;6.20;99.90
18779;DHT22;9518;51.720;14.384;2024-01-27T14:51:12;6.20;99.90
18779;DHT22;9518;51.720;14.384;2024-01-27T14:53:40;6.20;1.00
18779;DHT22;9518;51.720;14.384;2024-01-27T14:56:08;6.20;58.20
18779;DHT22;9518;51.720;14.384;2024-01-27T14:58:38;6.20;99.90
18779;DHT22;9518;51.720;14.384;2024-01-27T15:01:05;6.10;90.90
18779;DHT22;9518;51.720;14.384;2024-01-27T15:03:32;6.10;1.00
18779;DHT22;9518;51.720;14.384;2024-01-27T15:05:59;6.20;1.00
18779;DHT22;9518;51.720;14.384;2024-01-27T15:08:27;6.10;1.00
18779;DHT22;9518;51.720;14.384;2024-01-27T15:10:56;6.10;1.00
18779;DHT22;9518;51.720;14.384;2024-01-27T15:13:23;6.00;1.00
18779;DHT22;9518;51.720;14.384;2024-01-27T15:15:50;6.10;1.00
18779;DHT22;9518;51.720;14.384;2024-01-27T15:18:18;6.00;1.00
18779;DHT22;9518;51.720;14.384;2024-01-27T15:20:47;5.90;1.00
18779;DHT22;9518;51.720;14.384;2024-01-27T15:23:14;5.90;1.00
18779;DHT22;9518;51.720;14.384;2024-01-27T15:25:41;5.90;1.00
18779;DHT22;9518;51.720;14.384;2024-01-27T15:28:11;5.80;1.00
18779;DHT22;9518;51.720;14.384;2024-01-27T15:30:40;5.70;1.00
18779;DHT22;9518;51.720;14.384;2024-01-27T15:33:12;5.60;1.00
18779;DHT22;9518;51.720;14.384;2024-01-27T15:35:39;5.40;1.00
18779;DHT22;9518;51.720;14.384;2024-01-27T15:38:06;5.30;1.00
18779;DHT22;9518;51.720;14.384;2024-01-27T15:40:34;5.10;1.00
18779;DHT22;9518;51.720;14.384;2024-01-27T15:43:01;4.90;43.70
18779;DHT22;9518;51.720;14.384;2024-01-27T15:45:30;4.80;99.90
18779;DHT22;9518;51.720;14.384;2024-01-27T15:47:56;4.60;99.90
18779;DHT22;9518;51.720;14.384;2024-01-27T15:50:25;4.60;1.00
18779;DHT22;9518;51.720;14.384;2024-01-27T15:52:54;4.40;1.00
18779;DHT22;9518;51.720;14.384;2024-01-27T15:55:21;4.20;1.00
18779;DHT22;9518;51.720;14.384;2024-01-27T15:57:48;4.00;99.90
18779;DHT22;9518;51.720;14.384;2024-01-27T16:00:16;3.90;1.00